.
WxDataArchive / Data Records for 2006-03-09
2006-03-08 March 2006 2006-03-10

Data Records for Thursday, 09 March 2006

Time	Temp	Chill	HIndex	Humid	Dewpt	 Wind 	HiWind	WindDir	Rain 	Barom 
-----	----	-----	------	-----	-----	------	------	-------	-----	----- 
00:00	50.1	50.1	50.1	81	44.5	2	6	90	0.00	29.510 
00:05	50.4	50.4	50.4	81	44.8	2	9	68	0.00	29.510 
00:10	50.7	50.7	50.7	81	45.1	2	6	0	0.00	29.510 
00:15	51.0	51.0	51.0	81	45.4	2	9	45	0.00	29.504 
00:20	51.1	51.1	51.1	81	45.5	2	7	248	0.00	29.504 
00:25	51.3	51.3	51.3	81	45.7	2	7	248	0.00	29.504 
00:30	51.6	51.6	51.6	81	46.0	3	9	90	0.00	29.497 
00:35	51.7	51.7	51.7	81	46.1	3	6	248	0.00	29.497 
00:40	52.0	52.0	52.0	82	46.7	3	10	248	0.00	29.497 
00:45	52.0	52.0	52.0	82	46.7	3	7	248	0.00	29.493 
00:50	52.3	52.3	52.3	82	47.0	3	7	248	0.00	29.493 
00:55	52.5	52.5	52.5	82	47.2	3	10	270	0.00	29.493 
01:00	52.6	52.6	52.6	82	47.3	3	10	248	0.00	29.481 
01:05	53.1	53.1	53.1	81	47.4	4	12	248	0.00	29.481 
01:10	53.5	53.5	53.5	80	47.5	5	12	248	0.01	29.481 
01:15	53.8	53.8	53.8	79	47.4	4	14	270	0.00	29.484 
01:20	54.2	54.2	54.2	78	47.5	4	14	248	0.00	29.484 
01:25	54.7	54.7	54.7	77	47.6	4	14	248	0.00	29.484 
01:30	54.8	54.8	54.8	76	47.4	4	12	248	0.00	29.474 
01:35	55.0	55.0	55.0	76	47.6	5	13	248	0.00	29.474 
01:40	55.0	55.0	55.0	76	47.6	6	14	270	0.00	29.474 
01:45	54.7	54.7	54.7	76	47.3	3	9	248	0.00	29.470 
01:50	54.5	54.5	54.5	77	47.4	4	9	248	0.00	29.470 
01:55	54.4	54.4	54.4	77	47.3	3	10	248	0.00	29.470 
02:00	54.1	54.1	54.1	78	47.4	3	7	315	0.00	29.460 
02:05	53.9	53.9	53.9	78	47.2	4	15	270	0.00	29.460 
02:10	53.8	53.8	53.8	78	47.1	3	7	248	0.00	29.460 
02:15	53.6	53.6	53.6	79	47.2	3	10	248	0.00	29.457 
02:20	53.5	53.5	53.5	79	47.1	4	12	270	0.00	29.457 
02:25	53.3	53.3	53.3	79	47.0	3	10	248	0.00	29.457 
02:30	53.3	53.3	53.3	79	47.0	2	6	270	0.00	29.456 
02:35	53.2	53.2	53.2	80	47.2	3	12	248	0.00	29.456 
02:40	53.1	53.1	53.1	80	47.1	3	9	270	0.00	29.456 
02:45	53.1	53.1	53.1	80	47.1	2	5	270	0.00	29.435 
02:50	53.1	53.1	53.1	80	47.1	3	9	248	0.00	29.435 
02:55	53.1	53.1	53.1	79	46.8	4	10	225	0.00	29.435 
03:00	53.2	53.2	53.2	78	46.5	3	10	248	0.00	29.429 
03:05	53.2	53.2	53.2	78	46.5	3	11	270	0.00	29.429 
03:10	53.3	53.3	53.3	77	46.3	3	6	248	0.00	29.429 
03:15	53.3	53.3	53.3	76	45.9	3	7	248	0.00	29.416 
03:20	53.3	53.3	53.3	76	45.9	3	10	248	0.00	29.416 
03:25	53.5	53.5	53.5	75	45.8	3	7	270	0.00	29.416 
03:30	53.6	53.6	53.6	74	45.5	4	12	248	0.00	29.429 
03:35	53.6	53.6	53.6	74	45.5	4	10	270	0.00	29.429 
03:40	53.8	53.8	53.8	74	45.7	5	13	248	0.00	29.429 
03:45	53.6	53.6	53.6	75	45.9	3	7	248	0.00	29.426 
03:50	53.5	53.5	53.5	75	45.8	3	9	270	0.00	29.426 
03:55	53.6	53.6	53.6	75	45.9	4	11	248	0.00	29.426 
04:00	53.6	53.6	53.6	75	45.9	4	10	248	0.00	29.416 
04:05	53.8	53.8	53.8	75	46.1	4	9	248	0.00	29.416 
04:10	53.9	53.9	53.9	75	46.2	4	10	248	0.00	29.416 
04:15	54.1	54.1	54.1	76	46.7	4	13	248	0.00	29.417 
04:20	54.1	54.1	54.1	76	46.7	3	7	248	0.00	29.417 
04:25	54.2	54.2	54.2	76	46.8	5	13	248	0.00	29.417 
04:30	54.4	54.4	54.4	77	47.3	5	11	248	0.00	29.413 
04:35	54.4	54.4	54.4	77	47.3	5	12	248	0.00	29.413 
04:40	54.4	54.4	54.4	79	48.0	6	12	248	0.00	29.413 
04:45	54.4	54.4	54.4	79	48.0	5	11	248	0.00	29.423 
04:50	54.2	54.2	54.2	80	48.2	5	10	248	0.00	29.423 
04:55	54.1	54.1	54.1	81	48.4	5	12	248	0.00	29.423 
05:00	53.9	53.9	53.9	81	48.2	5	9	248	0.00	29.426 
05:05	53.9	53.9	53.9	82	48.5	5	11	248	0.00	29.426 
05:10	53.8	53.8	53.8	84	49.1	6	14	248	0.00	29.426 
05:15	53.5	53.5	53.5	85	49.1	5	9	270	0.00	29.433 
05:20	53.2	53.2	53.2	87	49.4	4	9	248	0.01	29.433 
05:25	52.9	52.9	52.9	88	49.4	4	10	248	0.00	29.433 
05:30	52.8	52.8	52.8	88	49.3	3	9	248	0.00	29.429 
05:35	52.6	52.6	52.6	89	49.4	3	6	248	0.00	29.429 
05:40	52.6	52.6	52.6	89	49.4	3	7	248	0.01	29.429 
05:45	52.6	52.6	52.6	89	49.4	3	7	248	0.00	29.422 
05:50	52.6	52.6	52.6	89	49.4	3	7	248	0.00	29.422 
05:55	52.6	52.6	52.6	89	49.4	3	6	248	0.00	29.422 
06:00	52.6	52.6	52.6	89	49.4	3	5	248	0.00	29.435 
06:05	52.8	52.8	52.8	88	49.3	3	8	248	0.00	29.435 
06:10	52.8	52.8	52.8	88	49.3	3	7	248	0.00	29.435 
06:15	52.9	52.9	52.9	88	49.4	3	7	248	0.00	29.445 
06:20	52.9	52.9	52.9	88	49.4	3	7	248	0.00	29.445 
06:25	52.9	52.9	52.9	88	49.4	2	4	248	0.00	29.445 
06:30	52.9	52.9	52.9	88	49.4	2	6	248	0.00	29.439 
06:35	52.8	52.8	52.8	89	49.6	3	9	248	0.00	29.439 
06:40	52.8	52.8	52.8	89	49.6	3	9	248	0.00	29.439 
06:45	52.6	52.6	52.6	89	49.4	1	5	248	0.00	29.432 
06:50	52.5	52.5	52.5	89	49.4	2	5	248	0.00	29.432 
06:55	52.5	52.5	52.5	89	49.4	3	7	90	0.00	29.432 
07:00	52.3	52.3	52.3	89	49.2	4	9	90	0.00	29.404 
07:05	52.3	52.3	52.3	89	49.2	3	9	68	0.00	29.404 
07:10	52.3	52.3	52.3	89	49.2	4	11	90	0.00	29.404 
07:15	52.5	52.5	52.5	88	49.0	5	11	90	0.00	29.386 
07:20	52.6	52.6	52.6	88	49.1	3	7	270	0.00	29.386 
07:25	52.6	52.6	52.6	88	49.1	3	7	90	0.00	29.386 
07:30	52.6	52.6	52.6	88	49.1	2	7	248	0.00	29.413 
07:35	52.8	52.8	52.8	88	49.3	4	10	248	0.00	29.413 
07:40	53.1	53.1	53.1	88	49.6	4	8	248	0.00	29.413 
07:45	53.1	53.1	53.1	87	49.3	3	8	248	0.00	29.432 
07:50	53.2	53.2	53.2	87	49.4	2	6	248	0.00	29.432 
07:55	53.2	53.2	53.2	87	49.4	1	4	248	0.00	29.432 
08:00	53.2	53.2	53.2	87	49.4	2	4	248	0.00	29.420 
08:05	53.2	53.2	53.2	87	49.4	3	6	90	0.00	29.420 
08:10	53.2	53.2	53.2	88	49.7	2	9	248	0.00	29.420 
08:15	53.3	53.3	53.3	88	49.8	2	7	248	0.00	29.428 
08:20	53.3	53.3	53.3	87	49.5	1	4	248	0.00	29.428 
08:25	53.3	53.3	53.3	88	49.8	1	4	90	0.00	29.428 
08:30	53.5	53.5	53.5	87	49.7	2	5	248	0.00	29.415 
08:35	53.6	53.6	53.6	88	50.1	0	3	248	0.00	29.415 
08:40	53.8	53.8	53.8	88	50.3	1	3	225	0.00	29.415 
08:45	53.9	53.9	53.9	87	50.1	2	5	248	0.00	29.405 
08:50	54.2	54.2	54.2	87	50.4	3	10	248	0.00	29.405 
08:55	54.4	54.4	54.4	86	50.3	3	6	248	0.00	29.405 
09:00	54.5	54.5	54.5	86	50.4	4	9	248	0.00	29.413 
09:05	54.5	54.5	54.5	86	50.4	4	9	248	0.00	29.413 
09:10	54.7	54.7	54.7	86	50.6	5	12	248	0.00	29.413 
09:15	54.7	54.7	54.7	86	50.6	3	6	248	0.00	29.416 
09:20	54.7	54.7	54.7	86	50.6	4	10	270	0.00	29.416 
09:25	54.7	54.7	54.7	86	50.6	3	6	248	0.00	29.416 
09:30	54.8	54.8	54.8	86	50.7	4	9	248	0.00	29.412 
09:35	55.0	55.0	55.0	86	50.9	3	8	248	0.00	29.412 
09:40	55.1	55.1	55.1	85	50.7	4	11	270	0.00	29.412 
09:45	55.1	55.1	55.1	86	51.0	3	10	270	0.00	29.413 
09:50	55.1	55.1	55.1	85	50.7	4	9	248	0.00	29.413 
09:55	55.1	55.1	55.1	85	50.7	5	11	248	0.00	29.413 
10:00	55.1	55.1	55.1	85	50.7	5	15	270	0.00	29.414 
10:05	55.0	55.0	55.0	85	50.6	5	12	248	0.00	29.414 
10:10	55.0	55.0	55.0	85	50.6	4	12	270	0.00	29.414 
10:15	55.0	55.0	55.0	85	50.6	5	12	248	0.00	29.423 
10:20	55.1	55.1	55.1	85	50.7	4	10	248	0.00	29.423 
10:25	55.1	55.1	55.1	85	50.7	4	11	248	0.00	29.423 
10:30	55.1	55.1	55.1	85	50.7	3	9	248	0.00	29.423 
10:35	55.3	55.3	55.3	85	50.9	5	13	270	0.00	29.423 
10:40	55.4	55.4	55.4	85	51.0	4	11	248	0.00	29.423 
10:45	55.6	55.6	55.6	85	51.2	4	11	270	0.00	29.415 
10:50	55.7	55.7	55.7	84	50.9	4	11	248	0.00	29.415 
10:55	55.9	55.9	55.9	83	50.8	4	10	270	0.00	29.415 
11:00	56.2	56.2	56.2	82	50.8	5	12	248	0.00	29.416 
11:05	56.3	56.3	56.3	81	50.5	6	12	248	0.00	29.416 
11:10	56.5	56.5	56.5	81	50.7	4	10	248	0.00	29.416 
11:15	56.6	56.6	56.6	81	50.8	6	14	248	0.00	29.407 
11:20	56.7	56.7	56.7	81	50.9	5	12	248	0.00	29.407 
11:25	56.9	56.9	56.9	80	50.8	5	10	248	0.00	29.407 
11:30	57.0	57.0	57.0	80	50.9	5	15	248	0.00	29.412 
11:35	57.0	57.0	57.0	80	50.9	5	17	248	0.00	29.412 
11:40	57.0	57.0	57.0	80	50.9	6	16	248	0.00	29.412 
11:45	57.0	57.0	57.0	80	50.9	6	14	270	0.00	29.422 
11:50	57.0	57.0	57.0	80	50.9	7	16	248	0.00	29.422 
11:55	57.2	57.2	57.2	80	51.1	7	15	248	0.00	29.422 
12:00	57.2	57.2	57.2	80	51.1	5	12	248	0.00	29.427 
12:05	57.2	57.2	57.2	81	51.4	4	7	248	0.00	29.427 
12:10	57.0	57.0	57.0	82	51.6	4	11	248	0.00	29.427 
12:15	56.5	56.5	56.5	84	51.7	7	13	248	0.00	29.427 
12:20	56.2	56.2	56.2	85	51.7	5	12	248	0.01	29.427 
12:25	56.2	56.2	56.2	86	52.1	5	11	248	0.00	29.427 
12:30	56.0	56.0	56.0	86	51.9	6	13	270	0.00	29.430 
12:35	56.0	56.0	56.0	87	52.2	4	12	248	0.00	29.430 
12:40	56.0	56.0	56.0	88	52.5	2	5	248	0.00	29.430 
12:45	56.2	56.2	56.2	88	52.7	3	7	248	0.00	29.416 
12:50	56.2	56.2	56.2	88	52.7	3	9	248	0.00	29.416 
12:55	56.5	56.5	56.5	88	53.0	3	9	248	0.00	29.416 
13:00	56.6	56.6	56.6	87	52.8	3	7	248	0.00	29.404 
13:05	56.7	56.7	56.7	86	52.6	3	6	248	0.00	29.404 
13:10	56.9	56.9	56.9	85	52.4	2	7	248	0.00	29.404 
13:15	56.9	56.9	56.9	84	52.1	3	7	248	0.00	29.393 
13:20	56.7	56.7	56.7	84	51.9	3	10	248	0.00	29.393 
13:25	56.7	56.7	56.7	84	51.9	2	6	248	0.00	29.393 
13:30	56.6	56.6	56.6	85	52.1	2	6	90	0.00	29.378 
13:35	56.6	56.6	56.6	85	52.1	2	5	112	0.00	29.378 
13:40	56.6	56.6	56.6	85	52.1	2	5	292	0.00	29.378 
13:45	56.6	56.6	56.6	86	52.5	1	5	248	0.00	29.361 
13:50	56.7	56.7	56.7	86	52.6	2	5	90	0.00	29.361 
13:55	56.7	56.7	56.7	86	52.6	1	5	0	0.00	29.361 
14:00	56.7	56.7	56.7	86	52.6	2	5	0	0.00	29.344 
14:05	56.9	56.9	56.9	86	52.8	2	4	45	0.00	29.344 
14:10	56.9	56.9	56.9	86	52.8	2	7	315	0.00	29.344 
14:15	56.9	56.9	56.9	87	53.1	2	5	90	0.00	29.338 
14:20	56.7	56.7	56.7	87	52.9	2	7	292	0.01	29.338 
14:25	56.7	56.7	56.7	87	52.9	2	6	248	0.00	29.338 
14:30	56.7	56.7	56.7	87	52.9	2	5	248	0.00	29.332 
14:35	56.9	56.9	56.9	88	53.4	3	7	248	0.00	29.332 
14:40	57.2	57.2	57.2	88	53.7	1	4	248	0.00	29.332 
14:45	57.2	57.2	57.2	88	53.7	1	5	248	0.00	29.323 
14:50	57.2	57.2	57.2	87	53.4	2	5	248	0.00	29.323 
14:55	57.0	57.0	57.0	87	53.2	2	5	112	0.00	29.323 
15:00	56.9	56.9	56.9	88	53.4	2	6	22	0.00	29.309 
15:05	56.9	56.9	56.9	88	53.4	2	6	112	0.00	29.309 
15:10	56.7	56.7	56.7	87	52.9	2	5	90	0.00	29.309 
15:15	56.6	56.6	56.6	88	53.1	1	6	202	0.01	29.325 
15:20	56.3	56.3	56.3	88	52.8	2	6	248	0.01	29.325 
15:25	56.2	56.2	56.2	89	53.0	1	4	248	0.02	29.325 
15:30	55.9	55.9	55.9	89	52.7	2	5	0	0.01	29.323 
15:35	55.7	55.7	55.7	90	52.8	1	4	338	0.01	29.323 
15:40	55.6	55.6	55.6	90	52.7	1	4	90	0.01	29.323 
15:45	55.4	55.4	55.4	91	52.8	1	3	112	0.01	29.327 
15:50	55.3	55.3	55.3	91	52.7	1	4	112	0.01	29.327 
15:55	55.3	55.3	55.3	92	53.0	1	3	90	0.02	29.327 
16:00	55.1	55.1	55.1	92	52.8	1	3	270	0.01	29.326 
16:05	55.1	55.1	55.1	92	52.8	1	3	270	0.03	29.326 
16:10	55.1	55.1	55.1	92	52.8	1	2	90	0.02	29.326 
16:15	55.0	55.0	55.0	92	52.7	0	2	90	0.03	29.310 
16:20	55.0	55.0	55.0	92	52.7	1	2	135	0.01	29.310 
16:25	54.8	54.8	54.8	93	52.8	1	2	112	0.00	29.310 
16:30	54.8	54.8	54.8	93	52.8	0	1	112	0.01	29.305 
16:35	54.7	54.7	54.7	93	52.7	1	2	112	0.00	29.305 
16:40	54.7	54.7	54.7	93	52.7	2	5	90	0.01	29.305 
16:45	54.7	54.7	54.7	93	52.7	1	4	112	0.01	29.294 
16:50	54.7	54.7	54.7	93	52.7	0	2	135	0.00	29.294 
16:55	54.7	54.7	54.7	93	52.7	2	6	112	0.00	29.294 
17:00	54.8	54.8	54.8	92	52.5	2	7	315	0.01	29.294 
17:05	55.0	55.0	55.0	92	52.7	3	5	112	0.00	29.294 
17:10	55.1	55.1	55.1	92	52.8	2	5	248	0.01	29.294 
17:15	55.3	55.3	55.3	92	53.0	3	8	248	0.00	29.301 
17:20	55.4	55.4	55.4	92	53.1	2	6	248	0.00	29.301 
17:25	55.6	55.6	55.6	92	53.3	3	16	90	0.00	29.301 
17:30	55.7	55.7	55.7	91	53.1	3	10	68	0.01	29.303 
17:35	55.7	55.7	55.7	91	53.1	3	7	248	0.00	29.303 
17:40	55.9	55.9	55.9	91	53.3	3	10	248	0.00	29.303 
17:45	55.9	55.9	55.9	91	53.3	2	6	225	0.01	29.294 
17:50	55.9	55.9	55.9	91	53.3	2	7	90	0.01	29.294 
17:55	55.9	55.9	55.9	91	53.3	2	6	68	0.00	29.294 
18:00	55.9	55.9	55.9	91	53.3	2	6	90	0.01	29.286 
18:05	55.9	55.9	55.9	91	53.3	4	7	90	0.01	29.286 
18:10	56.0	56.0	56.0	91	53.4	3	10	90	0.01	29.286 
18:15	55.9	55.9	55.9	91	53.3	4	9	90	0.01	29.276 
18:20	55.9	55.9	55.9	92	53.6	4	9	90	0.01	29.276 
18:25	55.9	55.9	55.9	91	53.3	4	9	90	0.00	29.276 
18:30	55.7	55.7	55.7	92	53.4	4	10	112	0.00	29.249 
18:35	55.6	55.6	55.6	91	53.0	3	7	90	0.00	29.249 
18:40	55.6	55.6	55.6	91	53.0	4	11	90	0.00	29.249 
18:45	55.6	55.6	55.6	91	53.0	4	7	90	0.01	29.250 
18:50	55.6	55.6	55.6	90	52.7	5	11	90	0.00	29.250 
18:55	55.4	55.4	55.4	90	52.5	3	10	68	0.00	29.250 
19:00	55.4	55.4	55.4	90	52.5	4	9	90	0.00	29.269 
19:05	55.3	55.3	55.3	90	52.4	4	12	270	0.01	29.269 
19:10	55.3	55.3	55.3	90	52.4	3	9	45	0.00	29.269 
19:15	55.1	55.1	55.1	91	52.5	3	10	248	0.00	29.263 
19:20	55.1	55.1	55.1	90	52.2	3	7	270	0.00	29.263 
19:25	55.1	55.1	55.1	90	52.2	3	7	270	0.00	29.263 
19:30	55.0	55.0	55.0	90	52.1	4	12	270	0.01	29.254 
19:35	55.0	55.0	55.0	90	52.1	3	12	202	0.00	29.254 
19:40	55.0	55.0	55.0	90	52.1	4	7	270	0.00	29.254 
19:45	54.8	54.8	54.8	89	51.6	3	7	248	0.00	29.265 
19:50	55.0	55.0	55.0	89	51.8	4	12	248	0.00	29.265 
19:55	54.8	54.8	54.8	88	51.3	4	13	90	0.00	29.265 
20:00	55.0	55.0	55.0	87	51.2	3	11	292	0.01	29.268 
20:05	54.8	54.8	54.8	87	51.0	4	12	270	0.00	29.268 
20:10	54.8	54.8	54.8	87	51.0	3	9	248	0.00	29.268 
20:15	54.7	54.7	54.7	88	51.2	3	7	270	0.00	29.274 
20:20	54.8	54.8	54.8	87	51.0	4	9	90	0.01	29.274 
20:25	54.8	54.8	54.8	87	51.0	4	9	68	0.00	29.274 
20:30	54.8	54.8	54.8	87	51.0	5	10	90	0.00	29.248 
20:35	55.0	55.0	55.0	87	51.2	5	11	68	0.00	29.248 
20:40	55.0	55.0	55.0	87	51.2	6	12	90	0.01	29.248 
20:45	55.0	55.0	55.0	87	51.2	5	13	90	0.00	29.235 
20:50	55.1	55.1	55.1	85	50.7	6	13	90	0.00	29.235 
20:55	55.3	55.3	55.3	84	50.5	6	13	90	0.00	29.235 
21:00	55.4	55.4	55.4	83	50.3	7	15	90	0.00	29.217 
21:05	55.7	55.7	55.7	83	50.6	8	17	90	0.00	29.217 
21:10	55.6	55.6	55.6	83	50.5	6	15	90	0.00	29.217 
21:15	55.6	55.6	55.6	83	50.5	6	13	90	0.00	29.239 
21:20	55.6	55.6	55.6	84	50.8	5	14	90	0.00	29.239 
21:25	55.4	55.4	55.4	84	50.6	6	18	90	0.00	29.239 
21:30	55.1	55.1	55.1	85	50.7	6	17	90	0.01	29.246 
21:35	55.0	55.0	55.0	85	50.6	7	13	90	0.00	29.246 
21:40	54.7	54.7	54.7	86	50.6	5	12	90	0.00	29.246 
21:45	54.7	54.7	54.7	86	50.6	7	13	90	0.00	29.228 
21:50	54.5	54.5	54.5	86	50.4	5	11	68	0.00	29.228 
21:55	54.5	54.5	54.5	86	50.4	5	10	90	0.00	29.228 
22:00	54.5	54.5	54.5	86	50.4	6	14	90	0.01	29.220 
22:05	54.5	54.5	54.5	86	50.4	6	14	90	0.00	29.220 
22:10	54.5	54.5	54.5	86	50.4	6	17	90	0.00	29.220 
22:15	54.4	54.4	54.4	86	50.3	6	12	90	0.00	29.199 
22:20	54.2	54.2	54.2	87	50.4	5	12	90	0.01	29.199 
22:25	54.1	54.1	54.1	87	50.3	5	13	90	0.00	29.199 
22:30	54.1	54.1	54.1	87	50.3	6	14	112	0.00	29.192 
22:35	53.9	53.9	53.9	87	50.1	6	17	90	0.01	29.192 
22:40	53.8	53.8	53.8	87	50.0	6	13	90	0.00	29.192 
22:45	53.8	53.8	53.8	87	50.0	6	13	90	0.00	29.141 
22:50	53.6	53.6	53.6	88	50.1	4	10	90	0.00	29.141 
22:55	53.5	53.5	53.5	88	50.0	3	7	90	0.00	29.141 
23:00	53.5	53.5	53.5	88	50.0	3	6	112	0.00	29.173 
23:05	53.5	53.5	53.5	88	50.0	4	12	90	0.01	29.173 
23:10	53.3	53.3	53.3	89	50.1	3	6	90	0.01	29.173 
23:15	53.3	53.3	53.3	89	50.1	4	10	112	0.01	29.183 
23:20	53.2	53.2	53.2	89	50.0	4	10	90	0.01	29.183 
23:25	53.1	53.1	53.1	90	50.2	3	7	90	0.00	29.183 
23:30	53.1	53.1	53.1	89	49.9	4	8	90	0.00	29.183 
23:35	53.1	53.1	53.1	89	49.9	4	11	68	0.01	29.183 
23:40	53.1	53.1	53.1	90	50.2	2	7	112	0.01	29.183 
23:45	52.9	52.9	52.9	90	50.0	3	7	112	0.00	29.163 
23:50	52.9	52.9	52.9	90	50.0	2	5	112	0.00	29.163 
23:55	52.8	52.8	52.8	89	49.6	3	7	90	0.00	29.163 

CoCoRaHS
IN-AL-39
A2 Web Hosting
Creative Commons License
GoDaddy
Look for:

loaded 2017-10-19 12:05:40 • last modified 2010-11-18 10:43:29
Privacy PolicyDisclaimer
• wx.awcolley.com is powered by PmWiki v.2002016 •
• all content (unless otherwise noted) © 2017 A W Colley